Time;durP1;ratioP1;P1;durP2;ratioP2;P2;SDS_P1;SDS_P2;PMS_P1;PMS_P2;Temp;Humidity;BMP_temperature;BMP_pressure;BME280_temperature;BME280_humidity;BME280_pressure;Samples;Min_cycle;Max_cycle;Signal;HPM_P1;HPM_P2
2023/10/15 00:00:30;;;;;;;1.33;0.50;;;;;;;;;;5091354;28;20214;-70
2023/10/15 00:02:57;;;;;;;2.17;0.70;;;;;;;;;;5092771;28;20198;-70
2023/10/15 00:05:28;;;;;;;2.37;0.40;;;;;;;;;;5091795;28;20183;-70
2023/10/15 00:07:57;;;;;;;3.50;0.50;;;;;;;;;;5092041;28;20210;-70
2023/10/15 00:10:28;;;;;;;3.10;0.87;;;;;;;;;;5091885;28;20210;-70
2023/10/15 00:12:55;;;;;;;1.47;0.57;;;;;;;;;;5092460;28;20602;-70
2023/10/15 00:15:23;;;;;;;3.03;0.67;;;;;;;;;;5092507;28;20175;-71
2023/10/15 00:17:51;;;;;;;1.23;0.60;;;;;;;;;;5092373;28;20636;-71
2023/10/15 00:20:20;;;;;;;0.80;0.50;;;;;;;;;;5092037;28;20183;-70
2023/10/15 00:22:51;;;;;;;2.40;0.63;;;;;;;;;;5092369;28;20663;-70
2023/10/15 00:25:22;;;;;;;4.63;0.60;;;;;;;;;;5092138;28;20231;-70
2023/10/15 00:27:59;;;;;;;1.67;0.80;;;;;;;;;;5094038;28;20214;-70
2023/10/15 00:30:32;;;;;;;1.53;0.57;;;;;;;;;;5073287;28;20215;-70
2023/10/15 00:33:03;;;;;;;4.43;0.83;;;;;;;;;;5072354;28;20171;-70
2023/10/15 00:35:34;;;;;;;1.85;0.35;;;;;;;;;;5072026;28;20275;-71
2023/10/15 00:38:07;;;;;;;1.63;0.60;;;;;;;;;;5090814;28;20384;-71
2023/10/15 00:40:37;;;;;;;1.73;0.77;;;;;;;;;;5091424;28;20294;-71
2023/10/15 00:43:05;;;;;;;1.87;0.50;;;;;;;;;;5091901;28;20207;-72
2023/10/15 00:45:51;;;;;;;4.18;0.50;;;;;;;;;;5091746;28;20188;-71
2023/10/15 00:48:56;;;;;;;2.23;0.60;;;;;;;;;;5082899;28;20537;-72
2023/10/15 00:51:14;;;;;;;3.92;0.68;;;;;;;;;;5091084;28;20206;-71
2023/10/15 00:53:54;;;;;;;1.03;0.47;;;;;;;;;;5091757;28;20183;-71
2023/10/15 00:56:23;;;;;;;1.33;0.40;;;;;;;;;;5091162;28;20190;-72
2023/10/15 01:01:26;;;;;;;2.03;0.73;;;;;;;;;;5091647;28;20565;-71
2023/10/15 01:03:57;;;;;;;2.97;0.70;;;;;;;;;;5090719;28;20800;-72
2023/10/15 01:06:35;;;;;;;1.53;0.50;;;;;;;;;;5091190;28;20183;-71
2023/10/15 01:09:10;;;;;;;0.87;0.50;;;;;;;;;;5081049;28;20519;-71
2023/10/15 01:11:38;;;;;;;1.53;0.50;;;;;;;;;;5089555;28;20553;-71
2023/10/15 01:14:10;;;;;;;5.43;1.00;;;;;;;;;;5091148;28;20187;-72
2023/10/15 01:16:38;;;;;;;1.07;0.50;;;;;;;;;;5091169;28;20208;-71
2023/10/15 01:24:19;;;;;;;2.40;0.70;;;;;;;;;;5091664;28;20210;-70
2023/10/15 01:27:00;;;;;;;2.17;0.90;;;;;;;;;;5091082;28;20195;-69
2023/10/15 01:29:27;;;;;;;1.63;0.77;;;;;;;;;;5091109;28;20632;-70
2023/10/15 01:31:58;;;;;;;1.83;0.90;;;;;;;;;;5091599;28;20240;-72
2023/10/15 01:34:27;;;;;;;3.33;0.80;;;;;;;;;;5091182;28;20613;-71
2023/10/15 01:36:56;;;;;;;7.53;0.93;;;;;;;;;;5090163;28;20175;-69
2023/10/15 01:39:37;;;;;;;3.77;0.80;;;;;;;;;;5091542;28;20179;-69
2023/10/15 01:42:06;;;;;;;1.90;0.90;;;;;;;;;;5091483;28;20210;-71
2023/10/15 01:44:47;;;;;;;2.60;0.70;;;;;;;;;;5091541;28;20260;-71
2023/10/15 01:47:15;;;;;;;3.40;0.87;;;;;;;;;;5092965;28;20179;-70
2023/10/15 01:49:42;;;;;;;2.13;1.20;;;;;;;;;;5092806;28;20211;-72
2023/10/15 01:52:09;;;;;;;3.43;0.77;;;;;;;;;;5093087;28;20175;-71
2023/10/15 01:54:45;;;;;;;2.03;0.97;;;;;;;;;;5091596;28;20175;-71
2023/10/15 01:57:16;;;;;;;2.30;1.17;;;;;;;;;;5093274;28;20179;-71
2023/10/15 01:59:46;;;;;;;2.47;0.87;;;;;;;;;;5093208;28;20180;-72
2023/10/15 02:02:18;;;;;;;3.47;1.23;;;;;;;;;;5092944;28;20183;-70
2023/10/15 02:04:46;;;;;;;3.63;0.60;;;;;;;;;;5091837;28;20194;-70
2023/10/15 02:07:17;;;;;;;3.47;0.60;;;;;;;;;;5092510;28;20194;-71
2023/10/15 02:09:45;;;;;;;4.73;0.80;;;;;;;;;;5092097;28;20229;-71
2023/10/15 02:12:18;;;;;;;4.43;1.30;;;;;;;;;;5091763;28;20183;-70
2023/10/15 02:14:47;;;;;;;1.73;0.70;;;;;;;;;;5091489;28;20179;-71
2023/10/15 02:17:18;;;;;;;2.37;1.20;;;;;;;;;;5092826;28;20182;-70
2023/10/15 02:19:47;;;;;;;2.70;0.83;;;;;;;;;;5092495;28;20175;-71
2023/10/15 02:22:14;;;;;;;2.27;0.80;;;;;;;;;;5092845;28;20539;-70
2023/10/15 02:24:49;;;;;;;2.67;0.80;;;;;;;;;;5096357;28;20237;-71
2023/10/15 02:27:23;;;;;;;2.77;1.20;;;;;;;;;;5095170;28;20178;-71
2023/10/15 02:29:54;;;;;;;4.37;1.70;;;;;;;;;;5096066;28;20203;-71
2023/10/15 02:34:54;;;;;;;3.43;1.97;;;;;;;;;;5096172;28;20557;-71
2023/10/15 02:37:28;;;;;;;3.50;2.43;;;;;;;;;;5096216;28;20228;-72
2023/10/15 02:39:59;;;;;;;4.10;2.37;;;;;;;;;;5096216;28;20261;-71
2023/10/15 02:42:35;;;;;;;2.33;1.90;;;;;;;;;;5096002;28;20178;-71
2023/10/15 02:45:06;;;;;;;3.77;2.60;;;;;;;;;;5096151;28;20650;-71
2023/10/15 02:47:48;;;;;;;4.17;3.20;;;;;;;;;;5058190;28;20544;-70
2023/10/15 02:50:18;;;;;;;4.73;2.90;;;;;;;;;;5073794;28;20692;-71
2023/10/15 02:52:45;;;;;;;4.53;2.67;;;;;;;;;;5074152;28;20172;-73
2023/10/15 02:55:16;;;;;;;4.87;3.00;;;;;;;;;;5073546;28;20573;-73
2023/10/15 02:57:44;;;;;;;4.03;3.13;;;;;;;;;;5073986;28;20191;-72
2023/10/15 03:00:18;;;;;;;6.53;4.00;;;;;;;;;;5073873;28;20190;-72
2023/10/15 03:02:49;;;;;;;9.00;4.90;;;;;;;;;;5073416;28;20172;-71
2023/10/15 03:05:17;;;;;;;8.27;4.63;;;;;;;;;;5073996;28;20172;-75
2023/10/15 03:07:44;;;;;;;7.03;5.07;;;;;;;;;;5091091;28;20190;-72
2023/10/15 03:10:24;;;;;;;6.43;5.37;;;;;;;;;;5093402;28;20627;-72
2023/10/15 03:12:52;;;;;;;7.10;6.03;;;;;;;;;;5093783;28;20207;-71
2023/10/15 03:15:20;;;;;;;7.20;5.23;;;;;;;;;;5093818;28;20182;-75
2023/10/15 03:17:48;;;;;;;9.40;5.10;;;;;;;;;;5092796;28;20194;-73
2023/10/15 03:22:52;;;;;;;6.63;4.13;;;;;;;;;;5093509;28;20244;-70
2023/10/15 03:31:09;;;;;;;2.20;1.53;;;;;;;;;;5093158;28;20244;-72
2023/10/15 03:33:36;;;;;;;5.47;2.00;;;;;;;;;;5093751;28;20713;-71
2023/10/15 03:36:04;;;;;;;3.67;2.13;;;;;;;;;;5093545;28;20249;-73
2023/10/15 03:44:05;;;;;;;3.00;1.27;;;;;;;;;;5008768;28;20686;-70
2023/10/15 03:46:34;;;;;;;4.00;1.17;;;;;;;;;;5012909;28;20268;-71
2023/10/15 03:49:07;;;;;;;4.97;1.10;;;;;;;;;;5011447;28;20193;-70
2023/10/15 03:51:40;;;;;;;0.97;0.70;;;;;;;;;;5012239;28;20190;-71
2023/10/15 03:54:09;;;;;;;2.97;0.87;;;;;;;;;;5013356;28;20189;-73
2023/10/15 03:56:36;;;;;;;2.53;1.07;;;;;;;;;;5012868;28;20190;-73
2023/10/15 03:59:03;;;;;;;3.33;1.13;;;;;;;;;;5012221;28;20190;-71
2023/10/15 04:01:31;;;;;;;3.05;1.02;;;;;;;;;;5013483;28;20186;-72
2023/10/15 04:04:02;;;;;;;3.70;1.10;;;;;;;;;;5012935;28;20659;-71
2023/10/15 04:06:30;;;;;;;2.63;0.93;;;;;;;;;;5012948;28;20203;-72
2023/10/15 04:11:38;;;;;;;4.07;1.13;;;;;;;;;;5012537;28;20190;-73
2023/10/15 04:16:46;;;;;;;9.20;1.10;;;;;;;;;;5013190;28;20178;-72
2023/10/15 04:21:52;;;;;;;2.33;0.90;;;;;;;;;;5071800;22;20268;-71
2023/10/15 04:24:38;;;;;;;1.67;1.00;;;;;;;;;;5028458;28;20197;-70
2023/10/15 04:27:15;;;;;;;2.05;0.75;;;;;;;;;;5033096;28;20185;-69
2023/10/15 04:40:39;;;;;;;2.57;1.30;;;;;;;;;;5148057;23;20279;-71
2023/10/15 04:43:06;;;;;;;2.97;1.20;;;;;;;;;;5005813;28;20182;-73
2023/10/15 04:48:01;;;;;;;1.77;0.97;;;;;;;;;;5031804;28;20668;-71
2023/10/15 04:50:32;;;;;;;2.37;1.20;;;;;;;;;;5014093;28;20222;-72
2023/10/15 04:55:46;;;;;;;3.60;1.00;;;;;;;;;;5031533;28;20195;-72
2023/10/15 04:58:13;;;;;;;1.80;1.00;;;;;;;;;;5030868;28;20641;-71
2023/10/15 05:00:44;;;;;;;3.63;1.10;;;;;;;;;;5024834;28;20186;-70
2023/10/15 05:03:12;;;;;;;2.47;1.37;;;;;;;;;;5011437;28;20654;-70
2023/10/15 05:05:42;;;;;;;1.97;0.97;;;;;;;;;;5026461;28;20193;-71
2023/10/15 05:08:12;;;;;;;2.00;1.00;;;;;;;;;;5016890;28;20194;-69
2023/10/15 05:10:50;;;;;;;4.27;1.13;;;;;;;;;;5014096;28;20221;-71
2023/10/15 05:13:18;;;;;;;2.40;0.97;;;;;;;;;;4991526;28;20189;-71
2023/10/15 05:15:48;;;;;;;1.33;0.90;;;;;;;;;;5007212;28;20715;-71
2023/10/15 05:18:18;;;;;;;2.30;1.00;;;;;;;;;;5021970;28;20178;-72
2023/10/15 05:20:47;;;;;;;3.40;0.83;;;;;;;;;;5018022;28;20220;-70
2023/10/15 05:23:15;;;;;;;4.33;0.90;;;;;;;;;;5031246;28;20177;-71
2023/10/15 05:25:42;;;;;;;2.23;0.90;;;;;;;;;;5013736;28;20224;-72
2023/10/15 05:28:14;;;;;;;2.40;0.97;;;;;;;;;;5010911;28;20174;-72
2023/10/15 05:30:42;;;;;;;4.03;1.10;;;;;;;;;;5011213;28;20209;-71
2023/10/15 05:33:09;;;;;;;2.90;1.43;;;;;;;;;;5010890;28;20186;-70
2023/10/15 05:35:40;;;;;;;4.53;1.23;;;;;;;;;;5010781;28;20189;-70
2023/10/15 05:38:10;;;;;;;3.73;1.07;;;;;;;;;;5024303;28;20201;-71
2023/10/15 05:40:38;;;;;;;4.63;1.00;;;;;;;;;;5025108;28;20189;-69
2023/10/15 05:43:06;;;;;;;1.77;0.80;;;;;;;;;;5012750;28;20643;-69
2023/10/15 05:45:33;;;;;;;4.77;1.33;;;;;;;;;;5012707;28;20192;-69
2023/10/15 05:48:00;;;;;;;2.23;0.83;;;;;;;;;;5013014;28;20186;-69
2023/10/15 05:50:28;;;;;;;5.87;1.23;;;;;;;;;;5022845;28;20223;-69
2023/10/15 05:52:55;;;;;;;7.07;1.20;;;;;;;;;;5013141;28;20193;-71
2023/10/15 05:55:22;;;;;;;2.10;1.03;;;;;;;;;;5026631;28;20553;-71
2023/10/15 05:57:50;;;;;;;2.53;0.80;;;;;;;;;;5001736;28;20201;-73
2023/10/15 06:00:18;;;;;;;4.70;1.00;;;;;;;;;;5020997;28;20181;-70
2023/10/15 06:02:50;;;;;;;3.80;1.57;;;;;;;;;;5034640;28;20189;-70
2023/10/15 06:05:18;;;;;;;5.63;1.47;;;;;;;;;;5034471;28;20228;-71
2023/10/15 06:07:45;;;;;;;4.90;1.03;;;;;;;;;;5034675;28;20203;-70
2023/10/15 06:10:13;;;;;;;3.27;1.30;;;;;;;;;;5026145;28;20237;-71
2023/10/15 06:12:41;;;;;;;2.27;0.97;;;;;;;;;;5014238;28;20181;-69
2023/10/15 06:15:09;;;;;;;2.73;1.03;;;;;;;;;;5013843;28;20718;-70
2023/10/15 06:17:36;;;;;;;4.00;1.40;;;;;;;;;;5013478;28;20277;-70
2023/10/15 06:20:13;;;;;;;3.70;1.37;;;;;;;;;;5026033;28;20182;-70
2023/10/15 06:22:44;;;;;;;5.27;1.40;;;;;;;;;;5013445;28;20263;-70
2023/10/15 06:25:16;;;;;;;15.77;1.70;;;;;;;;;;5015070;28;20178;-71
2023/10/15 06:27:44;;;;;;;4.07;1.10;;;;;;;;;;5014747;28;20189;-71
2023/10/15 06:30:16;;;;;;;2.47;1.40;;;;;;;;;;5014658;28;20245;-70
2023/10/15 06:32:49;;;;;;;3.13;1.10;;;;;;;;;;5014621;28;20273;-71
2023/10/15 06:35:20;;;;;;;3.83;1.60;;;;;;;;;;5014194;28;20603;-71
2023/10/15 06:37:47;;;;;;;3.77;1.17;;;;;;;;;;5014799;28;20185;-72
2023/10/15 06:40:15;;;;;;;3.07;1.03;;;;;;;;;;5021707;28;20226;-71
2023/10/15 06:42:46;;;;;;;2.80;1.00;;;;;;;;;;5033573;28;20228;-71
2023/10/15 06:45:20;;;;;;;3.03;1.30;;;;;;;;;;5016488;28;20186;-71
2023/10/15 06:47:49;;;;;;;2.60;0.90;;;;;;;;;;5014318;28;20236;-71
2023/10/15 06:50:19;;;;;;;6.33;1.50;;;;;;;;;;5020882;28;20224;-70
2023/10/15 06:52:46;;;;;;;3.67;1.37;;;;;;;;;;5033017;28;20559;-70
2023/10/15 06:55:14;;;;;;;3.07;1.23;;;;;;;;;;5034307;28;20181;-71
2023/10/15 06:57:42;;;;;;;2.20;1.23;;;;;;;;;;5033562;28;20185;-70
2023/10/15 07:00:10;;;;;;;3.17;1.40;;;;;;;;;;5026508;28;20545;-71
2023/10/15 07:02:38;;;;;;;4.10;1.30;;;;;;;;;;5012985;28;20241;-71
2023/10/15 07:05:06;;;;;;;4.80;1.60;;;;;;;;;;5026926;28;20189;-71
2023/10/15 07:07:34;;;;;;;4.70;1.50;;;;;;;;;;5033831;28;20181;-70
2023/10/15 07:10:07;;;;;;;5.27;1.57;;;;;;;;;;5033505;28;20732;-70
2023/10/15 07:12:35;;;;;;;6.63;1.50;;;;;;;;;;5018923;28;20194;-71
2023/10/15 07:15:05;;;;;;;3.33;1.20;;;;;;;;;;5022103;28;20189;-71
2023/10/15 07:17:32;;;;;;;1.83;1.23;;;;;;;;;;5032526;28;20185;-72
2023/10/15 07:19:59;;;;;;;4.50;1.20;;;;;;;;;;5033393;28;20228;-71
2023/10/15 07:22:27;;;;;;;4.63;1.50;;;;;;;;;;5033590;28;20239;-71
2023/10/15 07:24:54;;;;;;;4.73;1.20;;;;;;;;;;5022341;28;20189;-71
2023/10/15 07:27:21;;;;;;;3.47;1.30;;;;;;;;;;5033133;28;20562;-72
2023/10/15 07:29:49;;;;;;;2.10;1.33;;;;;;;;;;5033778;28;20224;-71
2023/10/15 07:32:17;;;;;;;3.43;1.43;;;;;;;;;;5033642;28;20215;-71
2023/10/15 07:34:44;;;;;;;3.80;1.10;;;;;;;;;;5021976;28;20606;-71
2023/10/15 07:37:12;;;;;;;5.10;1.10;;;;;;;;;;5033460;28;20528;-73
2023/10/15 07:39:39;;;;;;;4.60;1.53;;;;;;;;;;5025961;28;20247;-72
2023/10/15 07:42:07;;;;;;;1.80;1.27;;;;;;;;;;5032587;28;20221;-73
2023/10/15 07:44:34;;;;;;;4.37;1.63;;;;;;;;;;5031607;28;20186;-71
2023/10/15 07:47:02;;;;;;;4.30;1.47;;;;;;;;;;5013664;28;20806;-72
2023/10/15 07:49:31;;;;;;;4.87;1.20;;;;;;;;;;5012958;28;20210;-70
2023/10/15 07:51:59;;;;;;;2.23;1.43;;;;;;;;;;5013476;28;20197;-69
2023/10/15 07:54:26;;;;;;;6.13;1.50;;;;;;;;;;5019111;28;20689;-72
2023/10/15 07:56:54;;;;;;;3.83;1.80;;;;;;;;;;5025977;28;20291;-71
2023/10/15 07:59:21;;;;;;;4.47;1.20;;;;;;;;;;5012971;28;20237;-72
2023/10/15 08:01:50;;;;;;;3.43;1.60;;;;;;;;;;5012954;28;20177;-69
2023/10/15 08:04:17;;;;;;;5.63;1.60;;;;;;;;;;5012691;28;20666;-70
2023/10/15 08:06:46;;;;;;;4.73;1.90;;;;;;;;;;5016282;28;20642;-70
2023/10/15 08:09:14;;;;;;;4.10;1.30;;;;;;;;;;5032943;28;20260;-70
2023/10/15 08:11:41;;;;;;;4.57;1.50;;;;;;;;;;5028978;28;20186;-71
2023/10/15 08:14:09;;;;;;;6.23;1.50;;;;;;;;;;5013093;28;20292;-71
2023/10/15 08:16:37;;;;;;;5.37;1.87;;;;;;;;;;5023731;28;20193;-69
2023/10/15 08:19:05;;;;;;;5.37;1.50;;;;;;;;;;5012371;28;20232;-71
2023/10/15 08:21:32;;;;;;;3.97;1.80;;;;;;;;;;5017312;28;20209;-72
2023/10/15 08:24:00;;;;;;;4.90;1.50;;;;;;;;;;5032488;28;20653;-71
2023/10/15 08:26:28;;;;;;;5.27;1.77;;;;;;;;;;5031411;28;20268;-73
2023/10/15 08:28:56;;;;;;;5.97;2.00;;;;;;;;;;5011569;28;20191;-69
2023/10/15 08:31:24;;;;;;;4.97;1.97;;;;;;;;;;5012675;28;20304;-71
2023/10/15 08:33:51;;;;;;;8.70;2.67;;;;;;;;;;5012187;28;20212;-71
2023/10/15 08:36:19;;;;;;;5.50;2.00;;;;;;;;;;5012900;28;20563;-72
2023/10/15 08:38:49;;;;;;;6.73;1.90;;;;;;;;;;5014026;28;20193;-72
2023/10/15 08:41:18;;;;;;;7.83;2.00;;;;;;;;;;5012252;28;20237;-73
2023/10/15 08:43:46;;;;;;;10.30;2.20;;;;;;;;;;5023981;28;20196;-73
2023/10/15 08:46:14;;;;;;;5.67;1.80;;;;;;;;;;5032370;28;20227;-70
2023/10/15 08:48:42;;;;;;;6.70;2.03;;;;;;;;;;5013580;28;20537;-72
2023/10/15 08:51:10;;;;;;;6.60;2.13;;;;;;;;;;5012393;28;20218;-70
2023/10/15 08:53:37;;;;;;;6.37;1.90;;;;;;;;;;5011430;28;20182;-70
2023/10/15 08:56:06;;;;;;;4.57;2.10;;;;;;;;;;5011906;28;20174;-70
2023/10/15 08:58:34;;;;;;;6.07;1.67;;;;;;;;;;5012440;28;20188;-71
2023/10/15 09:01:02;;;;;;;3.67;1.80;;;;;;;;;;5012116;28;20189;-69
2023/10/15 09:03:30;;;;;;;7.60;2.37;;;;;;;;;;5018766;28;20493;-71
2023/10/15 09:05:58;;;;;;;2.23;1.43;;;;;;;;;;5031952;28;20191;-70
2023/10/15 09:08:25;;;;;;;4.87;1.60;;;;;;;;;;5026884;28;20269;-72
2023/10/15 09:10:52;;;;;;;4.03;1.63;;;;;;;;;;5011561;28;20220;-71
2023/10/15 09:13:21;;;;;;;4.70;1.73;;;;;;;;;;5017061;28;20711;-71
2023/10/15 09:15:52;;;;;;;5.60;1.63;;;;;;;;;;5031683;28;20680;-70
2023/10/15 09:18:20;;;;;;;3.47;1.97;;;;;;;;;;5030892;28;20204;-71
2023/10/15 09:20:51;;;;;;;5.37;1.87;;;;;;;;;;5031340;28;20273;-70
2023/10/15 09:23:21;;;;;;;4.73;2.20;;;;;;;;;;4997014;28;20195;-72
2023/10/15 09:25:53;;;;;;;6.03;2.67;;;;;;;;;;5031157;28;20181;-72
2023/10/15 09:28:21;;;;;;;4.07;2.13;;;;;;;;;;5031897;28;20176;-71
2023/10/15 09:30:51;;;;;;;5.83;2.70;;;;;;;;;;5030713;28;20223;-70
2023/10/15 09:33:28;;;;;;;4.30;1.70;;;;;;;;;;5034981;28;20693;-72
2023/10/15 09:35:55;;;;;;;4.70;1.67;;;;;;;;;;5018597;28;20225;-72
2023/10/15 09:38:22;;;;;;;7.90;1.53;;;;;;;;;;5026104;28;20363;-74
2023/10/15 09:40:50;;;;;;;7.20;1.70;;;;;;;;;;5037615;28;20677;-72
2023/10/15 09:43:18;;;;;;;6.40;1.77;;;;;;;;;;5036639;28;20646;-69
2023/10/15 09:45:45;;;;;;;4.77;1.83;;;;;;;;;;5018231;28;20220;-70
2023/10/15 09:48:13;;;;;;;3.47;1.30;;;;;;;;;;5018055;28;20187;-70
2023/10/15 09:50:42;;;;;;;6.80;2.00;;;;;;;;;;5018332;28;20241;-71
2023/10/15 09:53:09;;;;;;;2.40;1.33;;;;;;;;;;5018163;28;20185;-69
2023/10/15 09:55:36;;;;;;;4.13;1.63;;;;;;;;;;5017525;28;20197;-70
2023/10/15 09:58:11;;;;;;;3.60;1.40;;;;;;;;;;5034206;28;20648;-73
2023/10/15 10:00:46;;;;;;;4.37;1.40;;;;;;;;;;5038136;28;20177;-69
2023/10/15 10:03:19;;;;;;;4.23;1.80;;;;;;;;;;5037215;28;20171;-72
2023/10/15 10:05:57;;;;;;;7.10;1.60;;;;;;;;;;5011168;28;20244;-71
2023/10/15 10:08:47;;;;;;;2.77;1.50;;;;;;;;;;5030691;28;20179;-71
2023/10/15 10:11:23;;;;;;;5.70;1.57;;;;;;;;;;4985874;28;20265;-71
2023/10/15 10:13:56;;;;;;;2.70;1.30;;;;;;;;;;5005467;28;20562;-71
2023/10/15 10:16:26;;;;;;;7.63;1.77;;;;;;;;;;5019756;28;20182;-70
2023/10/15 10:18:55;;;;;;;3.40;1.30;;;;;;;;;;5024852;28;20189;-70
2023/10/15 10:21:22;;;;;;;5.27;1.57;;;;;;;;;;5038702;28;20239;-71
2023/10/15 10:23:53;;;;;;;5.13;1.37;;;;;;;;;;5035379;28;20191;-71
2023/10/15 10:26:24;;;;;;;2.63;1.43;;;;;;;;;;5019598;28;20190;-70
2023/10/15 10:28:51;;;;;;;3.23;1.57;;;;;;;;;;5030683;28;20277;-70
2023/10/15 10:31:19;;;;;;;6.03;1.60;;;;;;;;;;5038791;28;20263;-71
2023/10/15 10:33:46;;;;;;;3.37;1.20;;;;;;;;;;5037591;28;20176;-71
2023/10/15 10:36:15;;;;;;;3.40;1.33;;;;;;;;;;5030528;28;20188;-72
2023/10/15 10:38:46;;;;;;;3.20;1.40;;;;;;;;;;5032889;28;20647;-70
2023/10/15 10:41:14;;;;;;;4.03;1.80;;;;;;;;;;5019024;28;20221;-72
2023/10/15 10:43:43;;;;;;;10.33;2.07;;;;;;;;;;5017280;28;20665;-69
2023/10/15 10:46:26;;;;;;;3.03;1.63;;;;;;;;;;5016100;28;20662;-71
2023/10/15 10:49:08;;;;;;;1.23;1.10;;;;;;;;;;5016124;28;20190;-71
2023/10/15 10:51:36;;;;;;;4.20;1.67;;;;;;;;;;5015817;28;20217;-70
2023/10/15 10:54:03;;;;;;;3.20;1.47;;;;;;;;;;5016857;28;20546;-71
2023/10/15 10:56:42;;;;;;;5.00;1.67;;;;;;;;;;5016096;28;20193;-70
2023/10/15 10:59:10;;;;;;;3.97;1.60;;;;;;;;;;5015881;28;20193;-70
2023/10/15 11:01:39;;;;;;;3.30;1.60;;;;;;;;;;5015614;28;20190;-70
2023/10/15 11:04:09;;;;;;;4.47;1.50;;;;;;;;;;5015978;28;20640;-70
2023/10/15 11:06:48;;;;;;;2.20;1.30;;;;;;;;;;5015940;28;20174;-71
2023/10/15 11:09:16;;;;;;;5.87;1.53;;;;;;;;;;5015655;28;20196;-70
2023/10/15 11:11:46;;;;;;;3.30;1.70;;;;;;;;;;5015651;28;20606;-69
2023/10/15 11:14:14;;;;;;;4.13;1.50;;;;;;;;;;5016559;28;20611;-69
2023/10/15 11:16:45;;;;;;;4.20;1.67;;;;;;;;;;5015439;28;20251;-70
2023/10/15 11:19:25;;;;;;;2.07;1.27;;;;;;;;;;5031223;28;20196;-71
2023/10/15 11:24:55;;;;;;;1.97;1.40;;;;;;;;;;5032406;28;20199;-69
2023/10/15 11:27:23;;;;;;;2.97;1.37;;;;;;;;;;5033231;28;20646;-71
2023/10/15 11:29:50;;;;;;;3.23;1.87;;;;;;;;;;5027212;28;20243;-70
2023/10/15 11:32:17;;;;;;;4.80;1.80;;;;;;;;;;5033759;28;20214;-69
2023/10/15 11:34:45;;;;;;;3.03;1.40;;;;;;;;;;5018176;28;20227;-70
2023/10/15 11:37:16;;;;;;;3.53;1.40;;;;;;;;;;5015037;28;20178;-69
2023/10/15 11:39:47;;;;;;;3.27;1.47;;;;;;;;;;5031720;28;20185;-70
2023/10/15 11:42:18;;;;;;;6.00;1.60;;;;;;;;;;5032736;28;20217;-68
2023/10/15 11:44:46;;;;;;;4.50;1.70;;;;;;;;;;5034361;28;20185;-68
2023/10/15 11:47:19;;;;;;;3.80;1.57;;;;;;;;;;5034426;28;20559;-69
2023/10/15 11:49:50;;;;;;;3.03;1.37;;;;;;;;;;5033796;28;20288;-69
2023/10/15 11:52:22;;;;;;;2.50;1.43;;;;;;;;;;5034535;28;20552;-69
2023/10/15 11:54:49;;;;;;;3.83;1.40;;;;;;;;;;5025892;28;20193;-69
2023/10/15 11:57:23;;;;;;;6.33;1.60;;;;;;;;;;5014340;28;20178;-70
2023/10/15 11:59:51;;;;;;;3.83;1.73;;;;;;;;;;5014791;28;20204;-70
2023/10/15 12:02:19;;;;;;;3.37;1.40;;;;;;;;;;5023125;28;20181;-69
2023/10/15 12:04:51;;;;;;;3.63;1.47;;;;;;;;;;5023063;28;20192;-69
2023/10/15 12:07:21;;;;;;;3.77;1.70;;;;;;;;;;5010044;28;20185;-69
2023/10/15 12:09:49;;;;;;;8.30;1.60;;;;;;;;;;5014565;28;20225;-70
2023/10/15 12:12:16;;;;;;;4.77;1.87;;;;;;;;;;5014812;28;20178;-69
2023/10/15 12:14:43;;;;;;;3.73;1.80;;;;;;;;;;5014628;28;20273;-68
2023/10/15 12:17:12;;;;;;;5.23;1.70;;;;;;;;;;5014311;28;20232;-69
2023/10/15 12:19:41;;;;;;;7.07;2.03;;;;;;;;;;5014298;28;20178;-69
2023/10/15 12:22:14;;;;;;;3.50;1.93;;;;;;;;;;5029605;28;20193;-68
2023/10/15 12:24:41;;;;;;;5.93;1.77;;;;;;;;;;5016845;28;20209;-69
2023/10/15 12:27:09;;;;;;;5.40;2.00;;;;;;;;;;5014017;28;20182;-69
2023/10/15 12:29:38;;;;;;;2.80;2.00;;;;;;;;;;5014081;28;20271;-69
2023/10/15 12:32:08;;;;;;;4.50;2.37;;;;;;;;;;5016605;28;20550;-68
2023/10/15 12:34:39;;;;;;;3.23;1.93;;;;;;;;;;5014554;28;20670;-69
2023/10/15 12:37:12;;;;;;;2.97;2.03;;;;;;;;;;5014187;28;20650;-69
2023/10/15 12:39:45;;;;;;;3.97;2.10;;;;;;;;;;5013852;28;20201;-69
2023/10/15 12:42:13;;;;;;;4.03;1.93;;;;;;;;;;5016212;28;20218;-69
2023/10/15 12:44:40;;;;;;;4.70;2.07;;;;;;;;;;5033170;28;20181;-70
2023/10/15 12:47:12;;;;;;;2.67;1.73;;;;;;;;;;5033341;28;20177;-69
2023/10/15 12:49:41;;;;;;;4.03;1.80;;;;;;;;;;5033017;28;20291;-69
2023/10/15 12:52:09;;;;;;;4.13;1.80;;;;;;;;;;5018670;28;20182;-69
2023/10/15 12:54:36;;;;;;;4.50;2.17;;;;;;;;;;5013828;28;20189;-69
2023/10/15 12:57:04;;;;;;;3.90;2.10;;;;;;;;;;5012650;28;20216;-70
2023/10/15 12:59:31;;;;;;;3.27;1.93;;;;;;;;;;5013686;28;20186;-70
2023/10/15 13:01:58;;;;;;;3.80;1.67;;;;;;;;;;5013829;28;20301;-70
2023/10/15 13:04:25;;;;;;;3.67;1.60;;;;;;;;;;5031134;28;20185;-68
2023/10/15 13:06:53;;;;;;;5.80;1.80;;;;;;;;;;5032575;28;20184;-69
2023/10/15 13:09:25;;;;;;;4.27;1.80;;;;;;;;;;5032823;28;20185;-69
2023/10/15 13:11:53;;;;;;;2.70;1.90;;;;;;;;;;5033523;28;20530;-68
2023/10/15 13:14:20;;;;;;;5.40;1.73;;;;;;;;;;5033345;28;20185;-68
2023/10/15 13:16:50;;;;;;;4.20;1.73;;;;;;;;;;5033069;28;20193;-68
2023/10/15 13:19:18;;;;;;;4.27;1.60;;;;;;;;;;5032759;28;20185;-68
2023/10/15 13:21:45;;;;;;;3.73;1.80;;;;;;;;;;5033085;28;20208;-68
2023/10/15 13:24:12;;;;;;;4.43;1.70;;;;;;;;;;5033094;28;20255;-70
2023/10/15 13:26:42;;;;;;;4.57;1.83;;;;;;;;;;5026609;28;20320;-69
2023/10/15 13:29:09;;;;;;;3.43;1.90;;;;;;;;;;5013130;28;20217;-68
2023/10/15 13:31:36;;;;;;;2.30;1.57;;;;;;;;;;5013468;28;20222;-69
2023/10/15 13:34:06;;;;;;;3.47;1.77;;;;;;;;;;5013478;28;20177;-69
2023/10/15 13:36:34;;;;;;;3.03;1.73;;;;;;;;;;5013381;28;20299;-69
2023/10/15 13:39:01;;;;;;;4.97;2.10;;;;;;;;;;5013601;28;20221;-69
2023/10/15 13:41:28;;;;;;;5.33;2.10;;;;;;;;;;5028472;28;20239;-69
2023/10/15 13:43:55;;;;;;;5.00;2.20;;;;;;;;;;5032671;28;20192;-69
2023/10/15 13:46:22;;;;;;;10.83;2.30;;;;;;;;;;5033103;28;20649;-69
2023/10/15 13:48:50;;;;;;;7.70;2.13;;;;;;;;;;5033149;28;20318;-69
2023/10/15 13:51:18;;;;;;;7.10;2.90;;;;;;;;;;5026608;28;20223;-69
2023/10/15 13:53:45;;;;;;;5.93;2.40;;;;;;;;;;5013322;28;20189;-70
2023/10/15 13:56:13;;;;;;;5.67;3.00;;;;;;;;;;5013158;28;20201;-69
2023/10/15 13:58:41;;;;;;;5.43;2.77;;;;;;;;;;5013230;28;20185;-68
2023/10/15 14:01:08;;;;;;;10.53;3.10;;;;;;;;;;5016496;28;20208;-68
2023/10/15 14:03:38;;;;;;;9.00;2.60;;;;;;;;;;5020955;28;20201;-69
2023/10/15 14:06:05;;;;;;;10.73;2.60;;;;;;;;;;5032743;28;20656;-69
2023/10/15 14:08:32;;;;;;;11.20;2.87;;;;;;;;;;5032726;28;20185;-69
2023/10/15 14:10:59;;;;;;;10.97;3.57;;;;;;;;;;5026013;28;20244;-70
2023/10/15 14:13:26;;;;;;;10.10;3.10;;;;;;;;;;5012952;28;20178;-69
2023/10/15 14:15:55;;;;;;;8.17;2.97;;;;;;;;;;5013007;28;20185;-69
2023/10/15 14:18:22;;;;;;;12.80;3.13;;;;;;;;;;5013195;28;20193;-69
2023/10/15 14:20:50;;;;;;;13.23;3.50;;;;;;;;;;5019763;28;20204;-69
2023/10/15 14:23:18;;;;;;;12.20;2.97;;;;;;;;;;5031513;28;20219;-69
2023/10/15 14:25:47;;;;;;;9.97;3.37;;;;;;;;;;5036374;28;20247;-70
2023/10/15 14:28:14;;;;;;;10.80;3.17;;;;;;;;;;5036191;28;20174;-68
2023/10/15 14:30:42;;;;;;;6.50;2.60;;;;;;;;;;5035911;28;20245;-69
2023/10/15 14:33:09;;;;;;;11.57;3.20;;;;;;;;;;5034915;28;20234;-69
2023/10/15 14:35:36;;;;;;;12.87;2.93;;;;;;;;;;5036415;28;20228;-69
2023/10/15 14:38:05;;;;;;;6.67;2.80;;;;;;;;;;5034895;28;20647;-69
2023/10/15 14:40:32;;;;;;;8.13;3.20;;;;;;;;;;5016138;28;20244;-69
2023/10/15 14:42:59;;;;;;;7.33;2.83;;;;;;;;;;5016593;28;20190;-69
2023/10/15 14:45:26;;;;;;;9.43;3.00;;;;;;;;;;5016238;28;20185;-69
2023/10/15 14:47:53;;;;;;;7.87;2.40;;;;;;;;;;5016178;28;20181;-68
2023/10/15 14:50:20;;;;;;;9.87;3.00;;;;;;;;;;5016184;28;20205;-69
2023/10/15 14:52:47;;;;;;;12.80;3.90;;;;;;;;;;5016129;28;20174;-69
2023/10/15 14:55:16;;;;;;;9.37;3.43;;;;;;;;;;5016274;28;20213;-69
2023/10/15 14:57:47;;;;;;;9.43;2.90;;;;;;;;;;5015919;28;20651;-69
2023/10/15 15:00:14;;;;;;;7.60;2.83;;;;;;;;;;5015722;28;20197;-69
2023/10/15 15:02:43;;;;;;;7.50;2.90;;;;;;;;;;5016323;28;20184;-70
2023/10/15 15:05:11;;;;;;;10.47;3.13;;;;;;;;;;5014599;28;20265;-70
2023/10/15 15:07:38;;;;;;;11.00;3.40;;;;;;;;;;5015681;28;20213;-70
2023/10/15 15:10:06;;;;;;;11.67;3.10;;;;;;;;;;5014420;28;20264;-69
2023/10/15 15:12:33;;;;;;;12.03;2.60;;;;;;;;;;5015676;28;20643;-69
2023/10/15 15:15:02;;;;;;;11.60;3.03;;;;;;;;;;5015663;28;20170;-69
2023/10/15 15:17:29;;;;;;;6.70;2.70;;;;;;;;;;5029267;28;20288;-69
2023/10/15 15:19:57;;;;;;;7.77;2.80;;;;;;;;;;5028235;28;20186;-69
2023/10/15 15:22:24;;;;;;;7.20;3.10;;;;;;;;;;5015660;28;20257;-70
2023/10/15 15:24:52;;;;;;;12.10;3.23;;;;;;;;;;5015680;28;20212;-70
2023/10/15 15:27:20;;;;;;;6.20;2.77;;;;;;;;;;5015516;28;20257;-70
2023/10/15 15:29:47;;;;;;;10.73;3.10;;;;;;;;;;5019872;28;20193;-70
2023/10/15 15:32:15;;;;;;;5.87;3.00;;;;;;;;;;5035357;28;20185;-70
2023/10/15 15:34:42;;;;;;;11.17;3.17;;;;;;;;;;5034726;28;20282;-70
2023/10/15 15:37:09;;;;;;;12.40;3.23;;;;;;;;;;5034957;28;20704;-70
2023/10/15 15:39:37;;;;;;;9.03;2.87;;;;;;;;;;5034807;28;20322;-69
2023/10/15 15:42:06;;;;;;;10.60;3.80;;;;;;;;;;5034652;28;20228;-70
2023/10/15 15:44:34;;;;;;;5.93;2.63;;;;;;;;;;5035072;28;20178;-70
2023/10/15 15:47:01;;;;;;;10.20;2.80;;;;;;;;;;5035011;28;20173;-70